Aeroporto :
LOGIN :

Iscrizione | Disclaimer

   EN    FR    IT 

 










Sommario :    VFR   VFR Marginale   IFR   IFR Intensivo   IFR Molto Intensivo
Visibilità : 
Base nubi : 
>= 8 km
>= 3000ft
5 / 8 km
1000 / 3000 ft
1500m / 5 km
500 / 1000 ft
800 / 1500m
200 / 500 ft
< 800m
< 200 ft
Simboli :   Temporali  Nebbia  Neve Forte  Precipitazioni Forti  Vento > 20 kt
SIGMETs :   Varie  Temporali  Ghiacco  Turbolenza  Onda orograficha  Ceneri Vulcaniche






- Altitudine del aeroporto : 170 ft
- Codice IATA : KRP


EKKA - Karup

ULTIMO METAR :
  • 150450Z AUTO 18006KT 9999 BKN110/// 04/02 Q0986

METARs OBSOLETI :
  • 150420Z AUTO 19008KT 9999 FEW034/// 04/02 Q0986
  • 150350Z AUTO 19006KT 9999 FEW034/// BKN049/// BKN062/// 04/02 Q0987
  • 150320Z AUTO 19006KT 9999 FEW070/// 03/02 Q0986
  • 150250Z AUTO 21009KT 9999 NCD 04/02 Q0987
  • 150220Z AUTO 21010KT 9999 FEW033/// 05/02 Q0986

TAF TAF EKKA
Valido dal 15 a 03 ore il 16 a 03 ore UTC


150215Z 1503/1603 23012KT 9999 SCT008 BKN020
BECMG 1506/1508 17015G28KT 2500 RASN BKN005
BECMG 1508/1510 23015KT 9999 NSW BKN018
TEMPO 1510/1516 24020G38KT 4000 SHRA BKN012CB
TEMPO 1516/1520 6000 -SHRA SCT015CB
BECMG 1518/1520 22008KT



MetMap, La meteo Aeronautica in un colpo d'occhio ! - Copyright ORBIFLY Dicembre 2007 - Disclaimer

ORBIFLY MET'MAP TEAM :

Programmazione e sviluppo : Alexandra Zaïnal
Concezione : Baudouin d'Aumeries
Aiuto per la programmazione : Marc-Olivier Méhu
Supporto tecnico e logistico : Manuel Goepfert
Aiuto per la traduzione : Arnaldo La Scala

Contatto : metmap@orbifly.com




FONTI E CREDITI :

   NOAA